• Join FlightAware (Why Join?)
  • Login
  • US Flag 
12:57AM EDT


 

Airport Tracker/Info


-or-


 

Live Flight TrackerFlight Track Log ✈ N4909U ✈ 03-May-2012 ✈ KBBG - 3JC

Flight Track Log - Related Links

Times and Time Zones

All times are in EDT time to prevent confusion due to time zone crossing. See the N4909U flight status page for this flight to view local times or setup timezone preferences in your user account.

Time Position Orientation Groundspeed Altitude Reporting Facility
EDT Latitude Longitude Course Direction KTS MPH feet Rate Location/Type
02:36PM 36.5676 -93.2495 311° West  Level FlightAware Approximate
02:37PM 36.5961 -93.2887 311° West  Level FlightAware Approximate
02:38PM 36.6230 -93.3287 311° West  Level FlightAware Approximate
02:39PM 36.6514 -93.3679 311° West  Level FlightAware Approximate
02:40PM 36.6818 -93.4045 311° West  Level FlightAware Approximate
02:41PM 36.7102 -93.4438 310° West  Level FlightAware Approximate
02:42PM 36.7390 -93.4814 310° West  Level FlightAware Approximate
02:43PM 36.7670 -93.5203 310° West  Level FlightAware Approximate
02:44PM 36.7949 -93.5593 310° West  Level FlightAware Approximate
02:45PM 36.8228 -93.5982 309° West  Level FlightAware Approximate
02:46PM 36.8507 -93.6372 309° West  Level FlightAware Approximate
02:47PM 36.8785 -93.6761 308° West  Level FlightAware Approximate
02:48PM 36.9063 -93.7150 306° West  Level FlightAware Approximate
02:49PM 36.9341 -93.7540 304° West  Level FlightAware Approximate
02:50PM 36.9618 -93.7930 297° West  Level FlightAware Approximate
02:51PM 36.9896 -93.8320 239° Southwest  Level FlightAware Approximate
02:52PM 37.0173 -93.8710 149° Southeast  Level FlightAware Approximate
02:53PM 37.0450 -93.9101 140° Southeast  Level FlightAware Approximate
02:54PM 36.9831 -93.8456 309° West 156 180 10,000  Level Kansas City Center
02:55PM 37.0103 -93.8869 313° West 151 174 10,000 -60 Level Kansas City Center
02:56PM 37.0378 -93.9233 311° West 146 168 9,900  Descending Kansas City Center
02:57PM 37.0650 -93.9619 315° West 151 174 10,000  Climbing Kansas City Center
02:58PM 37.0964 -94.0008 312° West 156 180 9,900 -60 Descending Kansas City Center
02:59PM 37.1258 -94.0425 320° Northwest 156 180 9,900  Level Kansas City Center
03:00PM 37.1825 -94.1019 238° Southwest 156 180 9,900  Level Kansas City Center
03:01PM 37.1761 -94.1150 313° West 155 178 9,900  Level Kansas City Center
03:02PM 37.2033 -94.1514 314° West 149 171 9,900  Level Kansas City Center
03:03PM 37.2328 -94.1903 311° West 149 171 10,000  Climbing Kansas City Center
03:04PM 37.2600 -94.2294 317° Northwest 149 171 9,900 -60 Descending Kansas City Center
03:05PM 37.2914 -94.2658 311° West 149 171 9,900  Level Kansas City Center
03:06PM 37.3186 -94.3050 315° West 149 171 10,000  Climbing Kansas City Center
03:07PM 37.3500 -94.3442 306° West 156 180 9,900  Descending Kansas City Center
03:08PM 37.3728 -94.3833 316° Northwest 151 174 10,000  Climbing Kansas City Center
03:09PM 37.4022 -94.4197 311° West 151 174 10,000  Level Kansas City Center
03:10PM 37.4292 -94.4589 313° West 151 174 10,000  Level Kansas City Center
03:11PM 37.4583 -94.4981 311° West 157 181 10,000  Level Kansas City Center
03:12PM 37.4856 -94.5375 309° West 157 181 10,000  Level Kansas City Center
03:13PM 37.5128 -94.5794 313° West 157 181 10,000  Level Kansas City Center
03:14PM 37.5419 -94.6186 311° West 157 181 10,000  Level Kansas City Center
03:15PM 37.5711 -94.6606 313° West 157 181 10,100  Climbing Kansas City Center
03:16PM 37.6000 -94.7000 311° West 157 181 10,100  Level Kansas City Center
03:17PM 37.6272 -94.7394 311° West 157 181 10,100  Level Kansas City Center
03:18PM 37.6564 -94.7814 311° West 157 181 10,100 -60 Level Kansas City Center
03:19PM 37.6833 -94.8208 311° West 157 181 10,000 -60 Descending Kansas City Center
03:20PM 37.7125 -94.8631 309° West 157 181 10,000  Level Kansas City Center
03:21PM 37.7394 -94.9053 317° Northwest 150 173 10,000  Level Kansas City Center
03:22PM 37.7664 -94.9369 309° West 157 181 10,000  Level Kansas City Center
03:23PM 37.7933 -94.9792 311° West 157 181 10,000  Level Kansas City Center
03:24PM 37.8222 -95.0214 315° West 157 181 10,100  Climbing Kansas City Center
03:25PM 37.8514 -95.0583 315° West 157 181 10,100 -60 Level Kansas City Center
03:26PM 37.8783 -95.0928 315° West 152 175 10,000 -60 Descending Kansas City Center
03:27PM 37.9033 -95.1244 313° West 147 169 10,000  Level Kansas City Center
03:28PM 37.9322 -95.1642 307° West 147 169 10,000  Level Kansas City Center
03:29PM 37.9592 -95.2092 309° West 147 169 10,000  Level Kansas City Center
03:30PM 37.9858 -95.2517 310° West 155 178 10,000  Level Kansas City Center
03:31PM 38.0108 -95.2889 313° West 155 178 10,000  Level Kansas City Center
03:32PM 38.0397 -95.3286 310° West 150 173 10,000  Level Kansas City Center
03:33PM 38.0664 -95.3683 312° West 150 173 10,000  Level Kansas City Center
03:34PM 38.0933 -95.4058 308° West 150 173 10,100  Climbing Kansas City Center
03:35PM 38.1158 -95.4431 313° West 150 173 10,000 -60 Descending Kansas City Center
03:36PM 38.1447 -95.4831 313° West 155 178 10,000  Level Kansas City Center
03:37PM 38.1736 -95.5231 309° West 155 178 10,000  Level Kansas City Center
03:38PM 38.2025 -95.5683 312° West 161 185 10,000 -60 Level Kansas City Center
03:39PM 38.2292 -95.6056 306° West 154 177 9,900 -60 Descending Kansas City Center
03:40PM 38.2539 -95.6483 316° Northwest 154 177 9,900  Level Kansas City Center
03:41PM 38.2847 -95.6858 310° West 154 177 9,900  Level Kansas City Center
03:42PM 38.3114 -95.7258 310° West 154 177 10,000  Climbing Kansas City Center
03:43PM 38.3383 -95.7661 310° West 154 177 10,000 -300 Level Kansas City Center
03:44PM 38.3669 -95.8089 312° West 159 183 9,500 -540 Descending Kansas City Center
03:45PM 38.3956 -95.8492 311° West 159 183 9,000 -540 Descending Kansas City Center
03:46PM 38.4264 -95.8947 309° West 164 189 8,500 -600 Descending Kansas City Center
03:47PM 38.4592 -95.9458 309° West 164 189 7,800 -660 Descending Kansas City Center
03:48PM 38.4878 -95.9914 314° West 164 189 7,200 -480 Descending Kansas City Center
03:49PM 38.5167 -96.0292 308° West 159 183 6,900 -120 Descending Kansas City Center
03:50PM 38.5431 -96.0722 311° West 159 183 7,000  Climbing Kansas City Center
03:51PM 38.5739 -96.1181 310° West 159 183 7,000  Level Kansas City Center
03:52PM 38.6025 -96.1611 310° West 159 183 7,000 -60 Level Kansas City Center
03:53PM 38.6308 -96.2042 307° West 159 183 6,900  Descending Kansas City Center
03:54PM 38.6533 -96.2419 310° West 159 183 7,000 -300 Climbing Kansas City Center
03:55PM 38.6839 -96.2881 307° West 159 183 6,400 -780 Descending Kansas City Center
03:56PM 38.7144 -96.3392 311° West 172 198 5,500 -900 Descending Kansas City Center
03:57PM 38.7511 -96.3933 310° West 183 211 4,600 -660 Descending Kansas City Center
03:58PM 38.7797 -96.4367 308° West 183 211 4,200 -300 Descending Kansas City Center
03:59PM 38.8100 -96.4856 310° West 183 211 4,000 -180 Descending Kansas City Center
04:00PM 38.8406 -96.5317 310° West 178 205 3,900 -60 Descending Kansas City Center
04:01PM 38.8731 -96.5806 308° West 178 205 3,900  Level Kansas City Center
04:02PM 38.8994 -96.6239 314° West 173 199 3,900  Level Kansas City Center
04:03PM 38.9239 -96.6567 314° West 173 199 3,900  Level Kansas City Center